createdAt,value
2022-08-28T00:00:29.010Z,84.15
2022-08-28T00:02:57.584Z,84.54
2022-08-28T00:05:27.441Z,85.51
2022-08-28T00:07:55.226Z,84.72
2022-08-28T00:10:24.363Z,85.60
2022-08-28T00:12:55.000Z,86.20
2022-08-28T00:15:26.632Z,85.79
2022-08-28T00:17:55.876Z,87.02
2022-08-28T00:20:24.101Z,86.37
2022-08-28T00:22:52.706Z,86.09
2022-08-28T00:25:24.189Z,84.97
2022-08-28T00:27:55.322Z,84.12
2022-08-28T00:30:25.548Z,85.55
2022-08-28T00:32:55.853Z,85.63
2022-08-28T00:35:24.349Z,86.67
2022-08-28T00:37:52.625Z,86.87
2022-08-28T00:40:28.899Z,86.06
2022-08-28T00:43:01.835Z,85.85
2022-08-28T00:45:30.365Z,87.12
2022-08-28T00:47:59.726Z,86.99
2022-08-28T00:50:30.202Z,86.06
2022-08-28T00:53:00.011Z,86.75
2022-08-28T00:55:29.524Z,85.94
2022-08-28T00:58:00.519Z,86.78
2022-08-28T01:00:35.486Z,85.62
2022-08-28T01:03:06.069Z,86.05
2022-08-28T01:05:36.530Z,86.76
2022-08-28T01:08:06.282Z,87.43
2022-08-28T01:10:35.618Z,87.49
2022-08-28T01:13:04.045Z,87.93
2022-08-28T01:15:36.064Z,88.85
2022-08-28T01:18:08.715Z,88.06
2022-08-28T01:20:44.120Z,88.14
2022-08-28T01:23:19.142Z,88.35
2022-08-28T01:25:48.541Z,88.62
2022-08-28T01:28:16.695Z,88.00
2022-08-28T01:30:47.506Z,87.41
2022-08-28T01:33:15.885Z,88.30
2022-08-28T01:35:48.051Z,88.15
2022-08-28T01:38:20.089Z,89.18
2022-08-28T01:40:54.434Z,89.56
2022-08-28T01:43:26.216Z,91.13
2022-08-28T01:45:56.282Z,89.57
2022-08-28T01:48:27.159Z,88.80
2022-08-28T01:50:55.297Z,89.20
2022-08-28T01:53:26.060Z,89.60
2022-08-28T01:56:04.614Z,90.37
2022-08-28T01:58:37.465Z,90.60
2022-08-28T02:01:06.354Z,90.20
2022-08-28T02:03:34.430Z,88.76
2022-08-28T02:06:02.142Z,89.19
2022-08-28T02:08:29.942Z,89.87
2022-08-28T02:10:57.742Z,89.08
2022-08-28T02:13:26.846Z,89.15
2022-08-28T02:15:54.926Z,89.32
2022-08-28T02:18:22.857Z,89.54
2022-08-28T02:20:50.942Z,89.53
2022-08-28T02:23:19.457Z,87.88
2022-08-28T02:25:47.189Z,90.28
2022-08-28T02:28:17.548Z,90.34
2022-08-28T02:30:46.793Z,91.43
2022-08-28T02:33:14.805Z,90.98
2022-08-28T02:35:43.338Z,90.44
2022-08-28T02:38:11.558Z,91.59
2022-08-28T02:40:41.204Z,93.30
2022-08-28T02:43:08.986Z,91.97
2022-08-28T02:45:37.607Z,91.81
2022-08-28T02:48:14.685Z,89.91
2022-08-28T02:50:45.184Z,93.11
2022-08-28T02:53:13.303Z,91.49
2022-08-28T02:55:41.429Z,91.13
2022-08-28T02:58:09.634Z,91.51
2022-08-28T03:00:37.642Z,93.32
2022-08-28T03:03:06.791Z,94.48
2022-08-28T03:05:34.569Z,94.72
2022-08-28T03:08:02.334Z,93.64
2022-08-28T03:10:30.173Z,95.01
2022-08-28T03:12:57.922Z,95.24
2022-08-28T03:15:25.740Z,94.05
2022-08-28T03:17:53.480Z,93.72
2022-08-28T03:20:23.361Z,94.82
2022-08-28T03:23:08.899Z,92.69
2022-08-28T03:25:36.694Z,94.81
2022-08-28T03:28:04.872Z,94.30
2022-08-28T03:30:32.793Z,93.92
2022-08-28T03:33:01.160Z,93.08
2022-08-28T03:35:30.781Z,93.27
2022-08-28T03:37:58.622Z,91.83
2022-08-28T03:40:26.434Z,93.65
2022-08-28T03:42:54.203Z,92.73
2022-08-28T03:45:22.301Z,93.41
2022-08-28T03:47:50.361Z,94.02
2022-08-28T03:50:19.696Z,94.31
2022-08-28T03:52:49.170Z,94.70
2022-08-28T03:55:18.816Z,93.45
2022-08-28T03:57:46.833Z,93.05
2022-08-28T04:00:16.437Z,94.53
2022-08-28T04:02:46.190Z,94.88
2022-08-28T04:05:14.292Z,95.40
2022-08-28T04:07:42.052Z,94.73
2022-08-28T04:10:12.267Z,96.37
2022-08-28T04:12:40.171Z,95.05
2022-08-28T04:15:09.338Z,95.19
2022-08-28T04:17:39.630Z,96.35
2022-08-28T04:20:11.035Z,94.88
2022-08-28T04:22:39.089Z,96.07
2022-08-28T04:25:07.871Z,94.82
2022-08-28T04:27:36.979Z,96.44
2022-08-28T04:30:05.841Z,94.54
2022-08-28T04:32:35.378Z,95.55
2022-08-28T04:35:03.276Z,95.88
2022-08-28T04:37:31.019Z,95.53
2022-08-28T04:39:58.804Z,95.50
2022-08-28T04:42:26.866Z,94.36
2022-08-28T04:44:59.582Z,94.49
2022-08-28T04:47:27.794Z,94.14
2022-08-28T04:49:55.673Z,93.22
2022-08-28T04:52:23.838Z,94.33
2022-08-28T04:54:51.564Z,93.79
2022-08-28T04:57:19.291Z,95.22
2022-08-28T04:59:47.066Z,95.79
2022-08-28T05:02:16.240Z,97.75
2022-08-28T05:04:44.084Z,94.96
2022-08-28T05:07:11.819Z,96.54
2022-08-28T05:09:39.561Z,96.67
2022-08-28T05:12:07.530Z,98.21
2022-08-28T05:14:35.305Z,96.52
2022-08-28T05:17:03.044Z,98.27
2022-08-28T05:19:33.736Z,97.87
2022-08-28T05:22:01.506Z,97.14
2022-08-28T05:24:29.290Z,97.22
2022-08-28T05:26:57.931Z,96.61
2022-08-28T05:29:25.742Z,99.08
2022-08-28T05:31:53.613Z,97.75
2022-08-28T05:34:21.842Z,97.35
2022-08-28T05:36:50.992Z,97.39
2022-08-28T05:39:18.914Z,95.91
2022-08-28T05:41:47.521Z,95.97
2022-08-28T05:44:17.487Z,95.91
2022-08-28T05:46:48.037Z,93.73
2022-08-28T05:49:17.828Z,92.96
2022-08-28T05:51:45.669Z,92.68
2022-08-28T05:54:15.934Z,92.37
2022-08-28T05:56:45.313Z,92.25
2022-08-28T05:59:14.378Z,92.25
2022-08-28T06:01:44.995Z,93.35
2022-08-28T06:04:15.736Z,92.67
2022-08-28T06:06:43.585Z,91.85
2022-08-28T06:09:15.019Z,91.95
2022-08-28T06:11:44.801Z,91.90
2022-08-28T06:14:16.576Z,92.40
2022-08-28T06:16:48.429Z,91.72
2022-08-28T06:19:17.468Z,91.08
2022-08-28T06:21:46.823Z,91.39
2022-08-28T06:24:16.271Z,92.55
2022-08-28T06:26:44.352Z,91.03
2022-08-28T06:29:17.181Z,90.99
2022-08-28T06:31:45.157Z,92.51
2022-08-28T06:34:13.587Z,91.76
2022-08-28T06:36:43.237Z,92.47
2022-08-28T06:39:12.863Z,91.59
2022-08-28T06:41:43.756Z,92.02
2022-08-28T06:44:12.432Z,92.54
2022-08-28T06:46:40.214Z,91.21
2022-08-28T06:49:09.438Z,91.26
2022-08-28T06:51:37.340Z,90.40
2022-08-28T06:54:05.863Z,90.28
2022-08-28T06:56:34.138Z,90.65
2022-08-28T06:59:03.532Z,88.96
2022-08-28T07:01:33.733Z,89.25
2022-08-28T07:04:03.986Z,89.82
2022-08-28T07:06:34.209Z,88.98
2022-08-28T07:09:02.562Z,87.87
2022-08-28T07:11:32.391Z,88.30
2022-08-28T07:14:00.982Z,88.81
2022-08-28T07:16:32.882Z,87.39
2022-08-28T07:19:03.459Z,87.25
2022-08-28T07:21:32.621Z,87.66
2022-08-28T07:24:05.729Z,87.80
2022-08-28T07:26:33.595Z,86.96
2022-08-28T07:29:09.937Z,84.69
2022-08-28T07:31:41.369Z,83.96
2022-08-28T07:34:10.868Z,85.38
2022-08-28T07:36:38.908Z,83.27
2022-08-28T07:39:08.422Z,84.57
2022-08-28T07:41:39.406Z,83.74
2022-08-28T07:44:26.154Z,82.69
2022-08-28T07:46:56.738Z,82.84
2022-08-28T07:49:24.970Z,81.77
2022-08-28T07:51:53.962Z,79.76
2022-08-28T07:54:22.714Z,81.25
2022-08-28T07:56:51.267Z,79.04
2022-08-28T07:59:19.630Z,79.61
2022-08-28T08:01:50.668Z,79.43
2022-08-28T08:04:21.293Z,79.27
2022-08-28T08:06:51.366Z,79.19
2022-08-28T08:09:22.387Z,77.67
2022-08-28T08:11:50.765Z,76.63
2022-08-28T08:14:19.041Z,75.21
2022-08-28T08:16:48.482Z,76.53
2022-08-28T08:19:17.166Z,76.92
2022-08-28T08:21:54.697Z,77.88
2022-08-28T08:24:25.911Z,75.71
2022-08-28T08:26:59.912Z,76.14
2022-08-28T08:29:31.225Z,75.39
2022-08-28T08:32:04.857Z,73.85
2022-08-28T08:34:33.349Z,75.60
2022-08-28T08:37:02.593Z,72.15
2022-08-28T08:39:31.816Z,74.23
2022-08-28T08:42:03.298Z,73.34
2022-08-28T08:44:34.653Z,74.20
2022-08-28T08:47:16.535Z,72.58
2022-08-28T08:49:51.222Z,72.14
2022-08-28T08:52:30.992Z,72.80
2022-08-28T08:55:24.549Z,70.11
2022-08-28T08:57:57.874Z,70.63
2022-08-28T09:00:25.913Z,70.27
2022-08-28T09:03:02.631Z,70.10
2022-08-28T09:05:42.517Z,69.02
2022-08-28T09:08:26.889Z,68.23
2022-08-28T09:11:01.817Z,68.48
2022-08-28T09:13:38.476Z,69.43
2022-08-28T09:16:19.042Z,67.97
2022-08-28T09:18:48.064Z,66.23
2022-08-28T09:21:29.301Z,64.81
2022-08-28T09:24:01.277Z,65.41
2022-08-28T09:26:34.170Z,63.04
2022-08-28T09:29:06.212Z,63.89
2022-08-28T09:31:37.172Z,65.01
2022-08-28T09:34:25.514Z,64.81
2022-08-28T09:36:54.841Z,64.28
2022-08-28T09:39:26.670Z,63.33
2022-08-28T09:42:20.769Z,64.36
2022-08-28T09:45:01.956Z,62.69
2022-08-28T09:47:49.301Z,61.13
2022-08-28T09:50:27.712Z,63.62
2022-08-28T09:52:57.843Z,62.21
2022-08-28T09:55:34.759Z,63.10
2022-08-28T09:58:02.784Z,62.87
2022-08-28T10:00:34.901Z,61.63
2022-08-28T10:03:14.498Z,60.81
2022-08-28T10:05:50.583Z,61.22
2022-08-28T10:08:34.497Z,61.62
2022-08-28T10:11:16.973Z,61.47
2022-08-28T10:13:54.837Z,57.51
2022-08-28T10:16:30.373Z,59.11
2022-08-28T10:19:06.855Z,58.50
2022-08-28T10:21:43.001Z,57.58
2022-08-28T10:24:28.501Z,58.70
2022-08-28T10:27:07.326Z,59.76
2022-08-28T10:29:49.567Z,59.68
2022-08-28T10:32:35.801Z,59.76
2022-08-28T10:35:11.861Z,59.66
2022-08-28T10:37:51.949Z,58.28
2022-08-28T10:40:27.315Z,57.27
2022-08-28T10:43:03.922Z,59.55
2022-08-28T10:45:34.644Z,58.13
2022-08-28T10:48:10.137Z,58.07
2022-08-28T10:50:43.998Z,57.73
2022-08-28T10:53:16.589Z,56.97
2022-08-28T10:55:52.442Z,56.29
2022-08-28T10:58:25.565Z,57.00
2022-08-28T11:00:56.311Z,56.85
2022-08-28T11:03:35.586Z,56.59
2022-08-28T11:06:10.037Z,54.60
2022-08-28T11:08:40.585Z,54.45
2022-08-28T11:11:14.833Z,56.21
2022-08-28T11:13:57.106Z,53.80
2022-08-28T11:16:37.800Z,54.02
2022-08-28T11:19:26.433Z,55.70
2022-08-28T11:21:59.365Z,54.47
2022-08-28T11:24:47.262Z,54.24
2022-08-28T11:27:23.127Z,51.98
2022-08-28T11:30:21.718Z,52.83
2022-08-28T11:33:08.323Z,53.12
2022-08-28T11:35:51.548Z,52.03
2022-08-28T11:39:01.021Z,52.82
2022-08-28T11:41:31.414Z,51.93
2022-08-28T11:44:40.149Z,51.79
2022-08-28T11:47:52.160Z,52.30
2022-08-28T11:50:26.025Z,51.12
2022-08-28T11:53:22.920Z,52.69
2022-08-28T11:56:05.102Z,52.10
2022-08-28T11:58:39.853Z,51.25
2022-08-28T12:01:10.949Z,51.89
2022-08-28T12:03:42.229Z,53.07
2022-08-28T12:06:13.315Z,52.66
2022-08-28T12:09:11.715Z,51.20
2022-08-28T12:12:05.009Z,50.50
2022-08-28T12:15:04.881Z,50.37
2022-08-28T12:17:54.112Z,51.52
2022-08-28T12:20:39.908Z,50.70
2022-08-28T12:23:34.741Z,51.41
2022-08-28T12:26:05.190Z,49.33
2022-08-28T12:28:38.623Z,51.42
2022-08-28T12:31:56.282Z,50.49
2022-08-28T12:34:35.505Z,49.56
2022-08-28T12:37:06.542Z,49.04
2022-08-28T12:39:38.331Z,49.67
2022-08-28T12:42:14.509Z,47.79
2022-08-28T12:44:42.426Z,47.30
2022-08-28T12:47:12.596Z,48.21
2022-08-28T12:49:40.350Z,48.16
2022-08-28T12:52:11.523Z,47.69
2022-08-28T12:54:46.869Z,48.33
2022-08-28T12:57:17.399Z,47.88
2022-08-28T12:59:47.365Z,48.21
2022-08-28T13:02:25.844Z,47.70
2022-08-28T13:04:57.934Z,46.40
2022-08-28T13:07:31.229Z,49.42
2022-08-28T13:10:03.405Z,47.94
2022-08-28T13:12:37.870Z,46.86
2022-08-28T13:15:48.845Z,47.95
2022-08-28T13:18:39.614Z,47.51
2022-08-28T13:21:35.329Z,47.04
2022-08-28T13:24:26.218Z,47.26
2022-08-28T13:27:07.195Z,47.40
2022-08-28T13:29:35.986Z,48.11
2022-08-28T13:32:06.311Z,48.58
2022-08-28T13:34:36.177Z,47.64
2022-08-28T13:37:14.614Z,46.84
2022-08-28T13:39:48.542Z,47.11
2022-08-28T13:42:18.945Z,48.21
2022-08-28T13:44:48.705Z,47.22
2022-08-28T13:47:17.214Z,46.78
2022-08-28T13:49:44.956Z,46.32
2022-08-28T13:52:12.994Z,46.12
2022-08-28T13:54:43.703Z,46.46
2022-08-28T13:57:14.433Z,47.02
2022-08-28T13:59:43.615Z,46.37
2022-08-28T14:02:31.872Z,46.84
2022-08-28T14:04:59.685Z,47.04
2022-08-28T14:07:27.441Z,46.17
2022-08-28T14:09:56.586Z,46.02
2022-08-28T14:12:31.410Z,44.76
2022-08-28T14:15:03.352Z,44.34
2022-08-28T14:17:31.094Z,44.45
2022-08-28T14:19:59.810Z,45.29
2022-08-28T14:22:27.726Z,45.92
2022-08-28T14:24:55.451Z,46.21
2022-08-28T14:27:23.183Z,46.35
2022-08-28T14:29:50.995Z,45.41
2022-08-28T14:32:20.105Z,45.93
2022-08-28T14:34:47.879Z,44.96
2022-08-28T14:37:16.004Z,45.56
2022-08-28T14:39:43.814Z,45.16
2022-08-28T14:42:11.611Z,45.56
2022-08-28T14:44:41.087Z,46.20
2022-08-28T14:47:08.827Z,45.36
2022-08-28T14:49:39.211Z,45.64
2022-08-28T14:52:07.049Z,45.45
2022-08-28T14:54:34.854Z,45.17
2022-08-28T14:57:02.764Z,45.70
2022-08-28T14:59:32.466Z,46.08
2022-08-28T15:02:02.015Z,46.51
2022-08-28T15:04:34.698Z,45.43
2022-08-28T15:07:06.421Z,45.49
2022-08-28T15:09:37.895Z,45.33
2022-08-28T15:12:06.126Z,45.71
2022-08-28T15:14:34.430Z,46.41
2022-08-28T15:17:03.374Z,45.90
2022-08-28T15:19:31.231Z,45.48
2022-08-28T15:21:59.518Z,45.08
2022-08-28T15:24:33.051Z,45.42
2022-08-28T15:27:01.457Z,45.78
2022-08-28T15:29:30.029Z,45.92
2022-08-28T15:31:58.640Z,44.91
2022-08-28T15:34:28.974Z,45.75
2022-08-28T15:36:57.807Z,46.66
2022-08-28T15:39:43.322Z,46.07
2022-08-28T15:42:12.505Z,46.28
2022-08-28T15:44:40.295Z,47.62
2022-08-28T15:47:08.633Z,46.70
2022-08-28T15:49:43.349Z,46.81
2022-08-28T15:52:18.216Z,45.97
2022-08-28T15:54:46.014Z,46.61
2022-08-28T15:57:15.490Z,46.94
2022-08-28T15:59:49.568Z,47.06
2022-08-28T16:02:19.129Z,47.21
2022-08-28T16:04:46.931Z,48.17
2022-08-28T16:07:14.689Z,48.48
2022-08-28T16:09:42.537Z,47.85
2022-08-28T16:12:10.370Z,47.07
2022-08-28T16:14:39.536Z,47.12
2022-08-28T16:17:11.144Z,48.03
2022-08-28T16:19:39.712Z,48.56
2022-08-28T16:22:07.586Z,48.20
2022-08-28T16:24:35.345Z,48.38
2022-08-28T16:27:03.107Z,47.30
2022-08-28T16:29:30.902Z,47.99
2022-08-28T16:32:00.042Z,48.41
2022-08-28T16:34:31.508Z,48.95
2022-08-28T16:36:59.694Z,48.99
2022-08-28T16:39:27.909Z,48.91
2022-08-28T16:41:55.898Z,49.12
2022-08-28T16:44:25.696Z,48.80
2022-08-28T16:46:54.063Z,48.58
2022-08-28T16:49:23.941Z,49.53
2022-08-28T16:51:51.923Z,49.22
2022-08-28T16:54:21.481Z,49.27
2022-08-28T16:56:49.385Z,48.25
2022-08-28T16:59:20.476Z,48.43
2022-08-28T17:01:53.057Z,48.64
2022-08-28T17:04:23.778Z,48.76
2022-08-28T17:06:51.535Z,48.57
2022-08-28T17:09:20.917Z,48.37
2022-08-28T17:11:51.533Z,49.02
2022-08-28T17:14:19.941Z,48.84
2022-08-28T17:16:47.749Z,49.00
2022-08-28T17:19:15.862Z,49.20
2022-08-28T17:22:02.424Z,48.51
2022-08-28T17:24:30.985Z,48.85
2022-08-28T17:27:03.224Z,48.50
2022-08-28T17:29:33.156Z,48.58
2022-08-28T17:32:01.021Z,48.60
2022-08-28T17:34:30.575Z,48.23
2022-08-28T17:36:59.911Z,47.87
2022-08-28T17:39:27.633Z,48.59
2022-08-28T17:41:55.366Z,48.50
2022-08-28T17:44:23.215Z,49.82
2022-08-28T17:46:51.610Z,49.77
2022-08-28T17:49:19.489Z,50.05
2022-08-28T17:51:47.592Z,50.11
2022-08-28T17:54:21.306Z,50.17
2022-08-28T17:56:49.599Z,50.61
2022-08-28T17:59:17.371Z,51.25
2022-08-28T18:01:46.760Z,50.85
2022-08-28T18:04:23.039Z,51.73
2022-08-28T18:06:54.022Z,51.62
2022-08-28T18:09:23.797Z,52.29
2022-08-28T18:11:52.320Z,52.42
2022-08-28T18:14:20.942Z,52.64
2022-08-28T18:16:48.751Z,52.95
2022-08-28T18:19:16.807Z,53.83
2022-08-28T18:21:44.879Z,53.85
2022-08-28T18:24:13.238Z,53.81
2022-08-28T18:26:43.762Z,54.13
2022-08-28T18:29:11.736Z,54.26
2022-08-28T18:31:40.029Z,54.69
2022-08-28T18:34:09.744Z,54.58
2022-08-28T18:36:39.862Z,54.83
2022-08-28T18:39:07.979Z,54.83
2022-08-28T18:41:43.813Z,55.63
2022-08-28T18:44:14.341Z,55.40
2022-08-28T18:46:42.581Z,56.27
2022-08-28T18:49:10.816Z,55.93
2022-08-28T18:51:38.685Z,56.26
2022-08-28T18:54:06.422Z,56.85
2022-08-28T18:56:36.127Z,56.16
2022-08-28T18:59:06.351Z,56.29
2022-08-28T19:01:35.629Z,56.63
2022-08-28T19:04:03.868Z,56.65
2022-08-28T19:06:31.820Z,56.58
2022-08-28T19:08:59.698Z,57.03
2022-08-28T19:11:31.385Z,57.63
2022-08-28T19:13:59.583Z,58.08
2022-08-28T19:16:32.636Z,59.03
2022-08-28T19:19:02.732Z,58.87
2022-08-28T19:21:31.142Z,59.04
2022-08-28T19:23:58.981Z,59.52
2022-08-28T19:26:27.901Z,58.71
2022-08-28T19:28:56.016Z,59.17
2022-08-28T19:31:24.823Z,60.11
2022-08-28T19:33:52.633Z,59.65
2022-08-28T19:36:21.727Z,59.82
2022-08-28T19:38:49.500Z,60.92
2022-08-28T19:41:17.587Z,60.42
2022-08-28T19:43:45.383Z,60.70
2022-08-28T19:46:19.640Z,60.79
2022-08-28T19:48:49.086Z,61.40
2022-08-28T19:51:22.928Z,61.80
2022-08-28T19:53:58.295Z,61.55
2022-08-28T19:56:28.342Z,61.96
2022-08-28T19:58:57.364Z,61.25
2022-08-28T20:01:25.253Z,61.84
2022-08-28T20:03:53.177Z,62.23
2022-08-28T20:06:20.924Z,62.06
2022-08-28T20:08:48.661Z,62.73
2022-08-28T20:11:19.595Z,62.45
2022-08-28T20:13:47.330Z,62.29
2022-08-28T20:16:15.094Z,62.45
2022-08-28T20:18:42.850Z,62.73
2022-08-28T20:21:12.505Z,62.32
2022-08-28T20:23:40.447Z,62.82
2022-08-28T20:26:10.753Z,63.73
2022-08-28T20:28:40.372Z,63.15
2022-08-28T20:31:09.899Z,63.30
2022-08-28T20:33:38.092Z,63.91
2022-08-28T20:36:08.249Z,63.96
2022-08-28T20:38:47.057Z,64.62
2022-08-28T20:41:18.505Z,65.03
2022-08-28T20:43:48.384Z,65.33
2022-08-28T20:46:17.168Z,66.77
2022-08-28T20:48:45.646Z,66.03
2022-08-28T20:51:13.925Z,66.63
2022-08-28T20:53:41.692Z,67.78
2022-08-28T20:56:11.357Z,69.52
2022-08-28T20:58:39.368Z,69.13
2022-08-28T21:01:08.619Z,71.19
2022-08-28T21:03:36.385Z,71.11
2022-08-28T21:06:04.180Z,72.34
2022-08-28T21:08:31.898Z,72.07
2022-08-28T21:10:59.620Z,72.13
2022-08-28T21:13:28.045Z,73.22
2022-08-28T21:15:55.810Z,73.47
2022-08-28T21:18:25.009Z,74.30
2022-08-28T21:20:54.910Z,75.08
2022-08-28T21:23:22.658Z,74.20
2022-08-28T21:25:50.406Z,75.01
2022-08-28T21:28:18.216Z,75.90
2022-08-28T21:30:46.028Z,76.35
2022-08-28T21:33:13.810Z,76.01
2022-08-28T21:35:43.014Z,76.40
2022-08-28T21:38:10.775Z,77.48
2022-08-28T21:40:40.657Z,77.17
2022-08-28T21:43:08.503Z,78.02
2022-08-28T21:45:36.311Z,78.32
2022-08-28T21:48:04.677Z,79.28
2022-08-28T21:50:32.471Z,79.16
2022-08-28T21:53:01.568Z,78.42
2022-08-28T21:55:29.295Z,78.78
2022-08-28T21:57:57.261Z,78.60
2022-08-28T22:00:25.137Z,78.86
2022-08-28T22:02:52.943Z,80.24
2022-08-28T22:05:21.358Z,79.45
2022-08-28T22:07:49.133Z,78.97
2022-08-28T22:10:18.237Z,79.04
2022-08-28T22:12:45.953Z,79.82
2022-08-28T22:15:13.702Z,80.05
2022-08-28T22:17:41.496Z,80.78
2022-08-28T22:20:10.410Z,81.50
2022-08-28T22:22:55.590Z,81.04
2022-08-28T22:25:24.993Z,82.09
2022-08-28T22:27:52.726Z,81.34
2022-08-28T22:30:20.923Z,81.93
2022-08-28T22:32:48.665Z,81.67
2022-08-28T22:35:16.559Z,82.44
2022-08-28T22:37:44.285Z,83.15
2022-08-28T22:40:13.560Z,82.71
2022-08-28T22:42:43.406Z,82.40
2022-08-28T22:45:11.886Z,82.33
2022-08-28T22:47:39.939Z,81.67
2022-08-28T22:50:09.162Z,81.65
2022-08-28T22:52:37.155Z,81.50
2022-08-28T22:55:06.654Z,82.83
2022-08-28T22:57:34.495Z,81.31
2022-08-28T23:00:04.746Z,82.85
2022-08-28T23:02:32.543Z,82.52
2022-08-28T23:05:00.270Z,83.83
2022-08-28T23:07:28.107Z,83.04
2022-08-28T23:09:55.848Z,83.08
2022-08-28T23:12:24.048Z,83.27
2022-08-28T23:14:52.313Z,84.17
2022-08-28T23:17:21.408Z,83.13
2022-08-28T23:19:49.492Z,82.98
2022-08-28T23:22:18.179Z,82.58
2022-08-28T23:24:47.244Z,82.95
2022-08-28T23:27:35.275Z,83.09
2022-08-28T23:30:02.977Z,82.89
2022-08-28T23:32:33.719Z,83.20
2022-08-28T23:35:01.934Z,82.06
2022-08-28T23:37:29.722Z,82.57
2022-08-28T23:39:59.079Z,82.36
2022-08-28T23:42:28.598Z,84.16
2022-08-28T23:44:56.999Z,82.91
2022-08-28T23:47:24.799Z,83.01
2022-08-28T23:49:53.900Z,82.15
2022-08-28T23:52:21.781Z,82.52
2022-08-28T23:54:49.973Z,82.88
2022-08-28T23:57:17.926Z,82.49
2022-08-28T23:59:45.710Z,82.46
